createdAt,value
2018-05-17T00:01:37.899Z,10.40
2018-05-17T00:04:05.449Z,10.50
2018-05-17T00:06:33.443Z,10.50
2018-05-17T00:09:01.105Z,10.50
2018-05-17T00:11:28.645Z,10.50
2018-05-17T00:13:56.156Z,10.50
2018-05-17T00:16:23.685Z,10.50
2018-05-17T00:18:51.209Z,10.40
2018-05-17T00:21:18.768Z,10.50
2018-05-17T00:23:46.393Z,10.40
2018-05-17T00:26:13.925Z,10.40
2018-05-17T00:28:41.445Z,10.40
2018-05-17T00:31:09.009Z,10.40
2018-05-17T00:33:36.529Z,10.40
2018-05-17T00:36:04.061Z,10.40
2018-05-17T00:38:31.577Z,10.40
2018-05-17T00:40:59.112Z,10.40
2018-05-17T00:43:26.636Z,10.40
2018-05-17T00:45:54.203Z,10.40
2018-05-17T00:48:22.152Z,10.40
2018-05-17T00:50:49.861Z,10.30
2018-05-17T00:53:29.358Z,10.30
2018-05-17T00:55:56.896Z,10.40
2018-05-17T00:58:24.525Z,10.40
2018-05-17T01:00:52.049Z,10.40
2018-05-17T01:03:19.629Z,10.40
2018-05-17T01:05:47.134Z,10.40
2018-05-17T01:08:14.905Z,10.30
2018-05-17T01:10:42.419Z,10.40
2018-05-17T01:13:10.058Z,10.40
2018-05-17T01:15:37.681Z,10.40
2018-05-17T01:18:05.477Z,10.30
2018-05-17T01:20:33.000Z,10.30
2018-05-17T01:23:00.933Z,10.30
2018-05-17T01:25:28.633Z,10.30
2018-05-17T01:27:56.949Z,10.30
2018-05-17T01:30:24.473Z,10.30
2018-05-17T01:32:52.022Z,10.30
2018-05-17T01:35:19.548Z,10.30
2018-05-17T01:37:58.892Z,10.30
2018-05-17T01:40:26.417Z,10.40
2018-05-17T01:42:53.992Z,10.40
2018-05-17T01:45:21.503Z,10.40
2018-05-17T01:47:49.165Z,10.40
2018-05-17T01:50:16.689Z,10.40
2018-05-17T01:52:44.624Z,10.40
2018-05-17T01:55:12.250Z,10.40
2018-05-17T01:57:39.799Z,10.40
2018-05-17T02:00:07.309Z,10.40
2018-05-17T02:02:35.269Z,10.40
2018-05-17T02:05:02.787Z,10.40
2018-05-17T02:07:30.341Z,10.40
2018-05-17T02:09:57.854Z,10.40
2018-05-17T02:12:25.413Z,10.40
2018-05-17T02:14:53.408Z,10.40
2018-05-17T02:17:20.943Z,10.40
2018-05-17T02:19:48.449Z,10.40
2018-05-17T02:22:15.986Z,10.40
2018-05-17T02:24:43.500Z,10.40
2018-05-17T02:27:11.401Z,10.40
2018-05-17T02:29:38.944Z,10.40
2018-05-17T02:32:36.937Z,10.40
2018-05-17T02:35:04.447Z,10.40
2018-05-17T02:37:32.009Z,10.40
2018-05-17T02:39:59.512Z,10.40
2018-05-17T02:42:27.054Z,10.40
2018-05-17T02:44:54.559Z,10.40
2018-05-17T02:47:22.066Z,10.40
2018-05-17T02:49:49.604Z,10.40
2018-05-17T02:52:17.176Z,10.40
2018-05-17T02:54:44.718Z,10.40
2018-05-17T02:57:12.217Z,10.40
2018-05-17T02:59:39.749Z,10.40
2018-05-17T03:02:07.241Z,10.50
2018-05-17T03:04:35.253Z,10.50
2018-05-17T03:07:02.806Z,10.40
2018-05-17T03:09:30.325Z,10.50
2018-05-17T03:11:58.042Z,10.50
2018-05-17T03:14:25.601Z,10.50
2018-05-17T03:16:53.110Z,10.40
2018-05-17T03:19:21.049Z,10.40
2018-05-17T03:21:48.740Z,10.40
2018-05-17T03:24:16.414Z,10.40
2018-05-17T03:26:43.924Z,10.40
2018-05-17T03:29:11.461Z,10.40
2018-05-17T03:31:38.985Z,10.40
2018-05-17T03:34:06.528Z,10.40
2018-05-17T03:36:34.037Z,10.40
2018-05-17T03:39:01.590Z,10.40
2018-05-17T03:41:29.094Z,10.30
2018-05-17T03:43:56.641Z,10.40
2018-05-17T03:46:24.146Z,10.40
2018-05-17T03:48:51.976Z,10.40
2018-05-17T03:51:19.488Z,10.40
2018-05-17T03:53:47.430Z,10.40
2018-05-17T03:56:14.925Z,10.40
2018-05-17T03:58:42.471Z,10.50
2018-05-17T04:01:22.252Z,10.50
2018-05-17T04:04:01.570Z,10.40
2018-05-17T04:06:42.337Z,10.50
2018-05-17T04:09:09.897Z,10.50
2018-05-17T04:11:37.421Z,10.50
2018-05-17T04:14:06.069Z,10.50
2018-05-17T04:16:33.706Z,10.50
2018-05-17T04:19:01.261Z,10.50
2018-05-17T04:21:28.780Z,10.50
2018-05-17T04:23:56.345Z,10.50
2018-05-17T04:26:24.244Z,10.60
2018-05-17T04:28:51.779Z,10.60
2018-05-17T04:31:19.324Z,10.60
2018-05-17T04:33:47.219Z,10.70
2018-05-17T04:36:14.760Z,10.70
2018-05-17T04:38:42.280Z,10.80
2018-05-17T04:41:09.812Z,10.80
2018-05-17T04:43:37.325Z,10.80
2018-05-17T04:46:04.860Z,10.90
2018-05-17T04:48:32.755Z,11.00
2018-05-17T04:51:00.280Z,11.00
2018-05-17T04:53:27.787Z,11.00
2018-05-17T04:55:55.330Z,11.00
2018-05-17T04:58:22.879Z,11.10
2018-05-17T05:00:50.420Z,11.10
2018-05-17T05:03:17.936Z,11.20
2018-05-17T05:05:45.464Z,11.20
2018-05-17T05:08:12.971Z,11.20
2018-05-17T05:10:40.905Z,11.30
2018-05-17T05:13:08.420Z,11.30
2018-05-17T05:15:35.966Z,11.30
2018-05-17T05:18:03.473Z,11.40
2018-05-17T05:20:31.031Z,11.50
2018-05-17T05:22:58.533Z,11.50
2018-05-17T05:25:26.073Z,11.50
2018-05-17T05:27:53.581Z,11.60
2018-05-17T05:30:21.214Z,11.70
2018-05-17T05:32:48.855Z,11.80
2018-05-17T05:35:16.396Z,12.00
2018-05-17T05:37:44.297Z,12.20
2018-05-17T05:40:11.845Z,12.20
2018-05-17T05:42:39.361Z,12.50
2018-05-17T05:45:07.314Z,13.20
2018-05-17T05:47:34.831Z,13.40
2018-05-17T05:50:02.490Z,13.30
2018-05-17T05:52:30.120Z,13.40
2018-05-17T05:54:57.653Z,13.20
2018-05-17T05:57:25.562Z,12.90
2018-05-17T05:59:53.101Z,12.90
2018-05-17T06:02:20.645Z,12.60
2018-05-17T06:04:48.151Z,12.50
2018-05-17T06:07:15.683Z,12.30
2018-05-17T06:09:43.190Z,12.10
2018-05-17T06:12:10.731Z,12.00
2018-05-17T06:14:38.255Z,12.10
2018-05-17T06:17:05.788Z,12.20
2018-05-17T06:19:33.330Z,12.50
2018-05-17T06:22:00.866Z,12.90
2018-05-17T06:24:28.378Z,13.90
2018-05-17T06:26:55.938Z,16.00
2018-05-17T06:29:23.454Z,17.30
2018-05-17T06:31:51.453Z,19.00
2018-05-17T06:34:18.969Z,19.00
2018-05-17T06:36:46.908Z,18.20
2018-05-17T06:39:14.409Z,18.20
2018-05-17T06:41:42.025Z,17.50
2018-05-17T06:44:09.761Z,17.30
2018-05-17T06:46:37.313Z,16.50
2018-05-17T06:49:04.843Z,16.50
2018-05-17T06:51:32.513Z,17.40
2018-05-17T06:54:00.173Z,18.80
2018-05-17T06:56:27.721Z,18.90
2018-05-17T06:58:55.289Z,19.80
2018-05-17T07:01:22.852Z,20.60
2018-05-17T07:03:50.373Z,21.10
2018-05-17T07:06:17.900Z,21.60
2018-05-17T07:08:45.415Z,21.80
2018-05-17T07:11:12.984Z,22.20
2018-05-17T07:13:40.480Z,22.60
2018-05-17T07:16:08.476Z,23.30
2018-05-17T07:18:36.244Z,23.30
2018-05-17T07:21:03.944Z,20.90
2018-05-17T07:23:31.454Z,20.90
2018-05-17T07:25:58.997Z,20.70
2018-05-17T07:28:26.986Z,20.80
2018-05-17T07:30:54.525Z,20.80
2018-05-17T07:33:22.025Z,20.30
2018-05-17T07:35:49.576Z,19.90
2018-05-17T07:38:17.208Z,19.10
2018-05-17T07:40:44.730Z,18.60
2018-05-17T07:43:12.661Z,18.80
2018-05-17T07:45:40.157Z,18.80
2018-05-17T07:48:07.859Z,19.10
2018-05-17T07:50:35.377Z,20.10
2018-05-17T07:53:03.316Z,22.40
2018-05-17T07:55:30.914Z,22.40
2018-05-17T07:57:58.397Z,23.00
2018-05-17T08:00:25.925Z,22.20
2018-05-17T08:02:53.470Z,21.30
2018-05-17T08:05:20.976Z,20.20
2018-05-17T08:07:48.566Z,19.20
2018-05-17T08:10:16.472Z,18.90
2018-05-17T08:12:44.234Z,18.90
2018-05-17T08:15:11.753Z,18.30
2018-05-17T08:17:39.698Z,17.70
2018-05-17T08:20:07.215Z,17.70
2018-05-17T08:22:34.733Z,17.70
2018-05-17T08:25:02.638Z,17.50
2018-05-17T08:27:30.200Z,17.50
2018-05-17T08:29:57.712Z,17.80
2018-05-17T08:32:25.340Z,18.10
2018-05-17T08:34:52.850Z,18.70
2018-05-17T08:37:20.392Z,19.40
2018-05-17T08:39:47.901Z,19.70
2018-05-17T08:42:15.530Z,19.50
2018-05-17T08:44:43.193Z,19.10
2018-05-17T08:47:10.741Z,18.50
2018-05-17T08:49:38.246Z,17.80
2018-05-17T08:52:05.801Z,17.50
2018-05-17T08:54:33.314Z,17.40
2018-05-17T08:57:00.871Z,17.30
2018-05-17T08:59:28.382Z,17.20
2018-05-17T09:01:56.312Z,17.00
2018-05-17T09:04:23.838Z,17.00
2018-05-17T09:06:51.369Z,16.90
2018-05-17T09:09:18.964Z,17.10
2018-05-17T09:11:46.487Z,17.10
2018-05-17T09:14:14.043Z,16.90
2018-05-17T09:16:41.557Z,16.80
2018-05-17T09:19:09.175Z,16.90
2018-05-17T09:21:36.674Z,17.00
2018-05-17T09:24:04.206Z,16.80
2018-05-17T09:26:31.756Z,16.70
2018-05-17T09:28:59.289Z,16.70
2018-05-17T09:31:26.841Z,16.60
2018-05-17T09:33:54.577Z,16.40
2018-05-17T09:36:22.479Z,16.10
2018-05-17T09:38:50.034Z,16.10
2018-05-17T09:41:17.646Z,15.90
2018-05-17T09:43:45.114Z,15.60
2018-05-17T09:46:12.628Z,15.30
2018-05-17T09:48:40.173Z,15.20
2018-05-17T09:51:07.930Z,15.00
2018-05-17T09:53:35.471Z,14.80
2018-05-17T09:56:02.986Z,14.70
2018-05-17T09:58:30.788Z,14.60
2018-05-17T10:00:58.301Z,14.50
2018-05-17T10:03:25.835Z,14.50
2018-05-17T10:05:53.335Z,14.60
2018-05-17T10:08:20.886Z,14.90
2018-05-17T10:10:48.600Z,14.90
2018-05-17T10:13:16.148Z,15.00
2018-05-17T10:15:43.655Z,15.20
2018-05-17T10:18:11.192Z,15.40
2018-05-17T10:20:38.693Z,15.70
2018-05-17T10:23:06.510Z,16.00
2018-05-17T10:25:33.986Z,16.40
2018-05-17T10:28:01.917Z,18.10
2018-05-17T10:30:29.435Z,18.10
2018-05-17T10:32:56.972Z,19.10
2018-05-17T10:35:24.493Z,19.50
2018-05-17T10:37:52.049Z,19.50
2018-05-17T10:40:19.573Z,19.50
2018-05-17T10:42:47.102Z,19.20
2018-05-17T10:45:17.262Z,18.50
2018-05-17T10:47:44.785Z,18.10
2018-05-17T10:50:12.345Z,18.00
2018-05-17T10:52:39.968Z,18.00
2018-05-17T10:55:07.499Z,17.90
2018-05-17T10:57:35.012Z,17.60
2018-05-17T11:00:02.544Z,17.30
2018-05-17T11:02:30.113Z,16.90
2018-05-17T11:04:57.596Z,16.60
2018-05-17T11:07:25.113Z,16.50
2018-05-17T11:09:52.788Z,16.10
2018-05-17T11:12:20.541Z,15.90
2018-05-17T11:14:48.042Z,15.80
2018-05-17T11:17:15.537Z,16.00
2018-05-17T11:19:43.098Z,16.10
2018-05-17T11:22:10.685Z,16.20
2018-05-17T11:24:38.222Z,16.40
2018-05-17T11:27:05.790Z,16.50
2018-05-17T11:29:33.449Z,16.90
2018-05-17T11:32:00.957Z,17.20
2018-05-17T11:34:28.561Z,17.40
2018-05-17T11:36:56.078Z,17.30
2018-05-17T11:39:24.019Z,17.50
2018-05-17T11:41:51.558Z,17.60
2018-05-17T11:44:19.097Z,17.50
2018-05-17T11:46:46.619Z,17.40
2018-05-17T11:49:14.157Z,17.60
2018-05-17T11:51:41.675Z,17.80
2018-05-17T11:54:09.206Z,17.90
2018-05-17T11:56:36.863Z,17.90
2018-05-17T11:59:04.525Z,17.50
2018-05-17T12:01:32.045Z,17.40
2018-05-17T12:04:00.003Z,16.90
2018-05-17T12:06:27.516Z,16.90
2018-05-17T12:08:55.061Z,16.70
2018-05-17T12:11:22.582Z,16.40
2018-05-17T12:13:50.092Z,16.10
2018-05-17T12:16:17.681Z,16.00
2018-05-17T12:18:45.194Z,16.00
2018-05-17T12:21:12.751Z,16.00
2018-05-17T12:23:40.263Z,16.10
2018-05-17T12:26:07.801Z,16.30
2018-05-17T12:28:35.313Z,16.70
2018-05-17T12:31:02.850Z,16.90
2018-05-17T12:33:30.528Z,16.90
2018-05-17T12:35:58.083Z,16.90
2018-05-17T12:38:25.604Z,16.90
2018-05-17T12:40:53.297Z,16.70
2018-05-17T12:43:20.807Z,16.50
2018-05-17T12:45:48.353Z,16.50
2018-05-17T12:48:15.860Z,16.40
2018-05-17T12:50:43.401Z,16.20
2018-05-17T12:53:10.978Z,16.10
2018-05-17T12:55:38.642Z,16.00
2018-05-17T12:58:06.281Z,15.80
2018-05-17T13:00:33.838Z,15.80
2018-05-17T13:03:01.345Z,15.70
2018-05-17T13:05:28.884Z,15.50
2018-05-17T13:07:56.392Z,15.30
2018-05-17T13:10:24.324Z,14.80
2018-05-17T13:12:52.026Z,14.80
2018-05-17T13:15:19.590Z,14.60
2018-05-17T13:17:47.106Z,14.50
2018-05-17T13:20:14.714Z,14.50
2018-05-17T13:22:42.468Z,14.60
2018-05-17T13:25:10.025Z,14.80
2018-05-17T13:27:37.582Z,14.90
2018-05-17T13:30:05.140Z,15.30
2018-05-17T13:32:32.640Z,15.40
2018-05-17T13:35:00.173Z,15.50
2018-05-17T13:37:27.751Z,15.70
2018-05-17T13:39:55.240Z,15.70
2018-05-17T13:42:22.745Z,15.60
2018-05-17T13:44:50.293Z,15.50
2018-05-17T13:47:17.795Z,15.30
2018-05-17T13:49:45.344Z,15.20
2018-05-17T13:52:12.838Z,15.20
2018-05-17T13:54:40.505Z,15.10
2018-05-17T13:57:08.037Z,15.00
2018-05-17T13:59:35.567Z,14.90
2018-05-17T14:02:03.117Z,14.90
2018-05-17T14:04:30.645Z,14.90
2018-05-17T14:06:58.194Z,15.00
2018-05-17T14:09:25.715Z,15.10
2018-05-17T14:11:53.252Z,14.90
2018-05-17T14:14:21.156Z,14.50
2018-05-17T14:16:48.712Z,14.50
2018-05-17T14:19:16.235Z,14.20
2018-05-17T14:21:44.168Z,13.90
2018-05-17T14:24:11.688Z,14.00
2018-05-17T14:26:39.366Z,13.80
2018-05-17T14:29:06.880Z,13.70
2018-05-17T14:31:34.404Z,13.60
2018-05-17T14:34:01.909Z,13.60
2018-05-17T14:36:29.465Z,13.50
2018-05-17T14:38:56.986Z,13.30
2018-05-17T14:41:24.518Z,13.20
2018-05-17T14:43:52.349Z,13.20
2018-05-17T14:46:19.936Z,13.30
2018-05-17T14:48:47.457Z,13.30
2018-05-17T14:51:14.985Z,13.30
2018-05-17T14:53:42.589Z,13.20
2018-05-17T14:56:10.148Z,13.10
2018-05-17T14:58:37.664Z,13.10
2018-05-17T15:01:05.198Z,13.10
2018-05-17T15:03:33.096Z,13.10
2018-05-17T15:06:00.629Z,13.10
2018-05-17T15:08:28.215Z,13.20
2018-05-17T15:10:55.692Z,13.20
2018-05-17T15:13:23.200Z,13.20
2018-05-17T15:15:50.760Z,13.30
2018-05-17T15:18:18.272Z,13.40
2018-05-17T15:20:45.775Z,13.40
2018-05-17T15:23:13.310Z,13.40
2018-05-17T15:25:41.201Z,13.30
2018-05-17T15:28:08.737Z,13.30
2018-05-17T15:30:36.259Z,13.40
2018-05-17T15:33:03.879Z,13.40
2018-05-17T15:35:31.405Z,13.40
2018-05-17T15:37:59.344Z,13.60
2018-05-17T15:40:26.858Z,13.60
2018-05-17T15:42:54.752Z,13.50
2018-05-17T15:45:22.293Z,13.50
2018-05-17T15:47:50.865Z,13.60
2018-05-17T15:50:18.525Z,13.70
2018-05-17T15:52:46.172Z,13.80
2018-05-17T15:55:13.853Z,13.80
2018-05-17T15:57:41.384Z,13.80
2018-05-17T16:00:08.880Z,13.70
2018-05-17T16:02:36.428Z,13.70
2018-05-17T16:05:03.951Z,13.60
2018-05-17T16:07:31.481Z,13.60
2018-05-17T16:09:59.001Z,13.60
2018-05-17T16:12:26.560Z,13.50
2018-05-17T16:14:54.146Z,13.40
2018-05-17T16:17:21.645Z,13.40
2018-05-17T16:19:49.165Z,13.30
2018-05-17T16:22:16.705Z,13.30
2018-05-17T16:24:44.632Z,13.30
2018-05-17T16:27:12.232Z,13.30
2018-05-17T16:29:39.918Z,13.30
2018-05-17T16:32:07.487Z,13.40
2018-05-17T16:34:35.092Z,13.30
2018-05-17T16:37:02.638Z,13.40
2018-05-17T16:39:30.169Z,13.40
2018-05-17T16:41:57.713Z,13.40
2018-05-17T16:44:25.229Z,13.40
2018-05-17T16:46:53.232Z,13.50
2018-05-17T16:49:20.788Z,13.50
2018-05-17T16:51:48.307Z,13.50
2018-05-17T16:54:16.043Z,13.40
2018-05-17T16:56:43.499Z,13.50
2018-05-17T16:59:11.049Z,13.70
2018-05-17T17:01:38.576Z,13.80
2018-05-17T17:04:06.122Z,13.90
2018-05-17T17:06:33.629Z,14.00
2018-05-17T17:09:01.161Z,14.10
2018-05-17T17:11:28.674Z,14.20
2018-05-17T17:13:56.211Z,14.30
2018-05-17T17:16:23.721Z,14.30
2018-05-17T17:18:51.249Z,14.30
2018-05-17T17:21:18.828Z,14.20
2018-05-17T17:23:46.484Z,14.20
2018-05-17T17:26:14.139Z,14.20
2018-05-17T17:28:41.667Z,14.10
2018-05-17T17:31:09.252Z,14.10
2018-05-17T17:33:36.790Z,14.10
2018-05-17T17:36:04.355Z,14.00
2018-05-17T17:38:32.012Z,14.00
2018-05-17T17:40:59.525Z,14.00
2018-05-17T17:43:27.061Z,13.90
2018-05-17T17:45:54.573Z,13.90
2018-05-17T17:48:22.248Z,13.90
2018-05-17T17:50:49.746Z,13.80
2018-05-17T17:53:17.774Z,13.80
2018-05-17T17:55:45.273Z,13.80
2018-05-17T17:58:12.829Z,13.70
2018-05-17T18:00:40.344Z,13.70
2018-05-17T18:03:07.882Z,13.70
2018-05-17T18:05:35.395Z,13.60
2018-05-17T18:08:03.111Z,13.60
2018-05-17T18:10:30.627Z,13.50
2018-05-17T18:12:58.530Z,13.40
2018-05-17T18:15:26.079Z,13.40
2018-05-17T18:17:53.604Z,13.30
2018-05-17T18:20:21.537Z,13.20
2018-05-17T18:22:49.038Z,13.20
2018-05-17T18:25:16.572Z,13.20
2018-05-17T18:27:44.577Z,13.20
2018-05-17T18:30:12.114Z,13.20
2018-05-17T18:32:39.728Z,13.20
2018-05-17T18:35:07.193Z,13.20
2018-05-17T18:37:34.710Z,13.10
2018-05-17T18:40:02.262Z,13.10
2018-05-17T18:42:29.925Z,13.10
2018-05-17T18:44:57.656Z,13.10
2018-05-17T18:47:25.112Z,13.00
2018-05-17T18:49:52.645Z,12.90
2018-05-17T18:52:20.166Z,12.90
2018-05-17T18:54:47.696Z,12.80
2018-05-17T18:57:15.200Z,12.80
2018-05-17T18:59:42.742Z,12.70
2018-05-17T19:02:10.273Z,12.70
2018-05-17T19:04:37.818Z,12.70
2018-05-17T19:07:05.477Z,12.70
2018-05-17T19:09:33.009Z,12.70
2018-05-17T19:12:00.521Z,12.70
2018-05-17T19:14:28.078Z,12.70
2018-05-17T19:16:55.598Z,12.60
2018-05-17T19:19:23.146Z,12.60
2018-05-17T19:21:50.676Z,12.60
2018-05-17T19:24:18.597Z,12.50
2018-05-17T19:26:46.107Z,12.50
2018-05-17T19:29:13.642Z,12.50
2018-05-17T19:31:41.305Z,12.40
2018-05-17T19:34:08.798Z,12.40
2018-05-17T19:36:36.359Z,12.30
2018-05-17T19:39:03.904Z,12.30
2018-05-17T19:41:31.414Z,12.20
2018-05-17T19:43:58.965Z,12.20
2018-05-17T19:46:26.492Z,12.20
2018-05-17T19:48:54.020Z,12.20
2018-05-17T19:51:21.648Z,12.20
2018-05-17T19:53:49.161Z,12.20
2018-05-17T19:56:16.695Z,12.20
2018-05-17T19:58:44.205Z,12.20
2018-05-17T20:01:11.753Z,12.20
2018-05-17T20:03:39.383Z,12.20
2018-05-17T20:06:06.925Z,12.20
2018-05-17T20:08:34.433Z,12.20
2018-05-17T20:11:02.133Z,12.20
2018-05-17T20:13:29.661Z,12.20
2018-05-17T20:15:57.585Z,12.20
2018-05-17T20:18:25.092Z,12.20
2018-05-17T20:20:52.623Z,12.20
2018-05-17T20:23:20.133Z,12.20
2018-05-17T20:25:47.678Z,12.30
2018-05-17T20:28:15.252Z,12.30
2018-05-17T20:30:43.151Z,12.30
2018-05-17T20:33:10.648Z,12.30
2018-05-17T20:35:38.202Z,12.30
2018-05-17T20:38:05.758Z,12.20
2018-05-17T20:40:33.284Z,12.20
2018-05-17T20:43:00.790Z,12.20
2018-05-17T20:45:28.333Z,12.20
2018-05-17T20:47:55.840Z,12.20
2018-05-17T20:50:23.400Z,12.20
2018-05-17T20:52:50.916Z,12.20
2018-05-17T20:55:18.641Z,12.20
2018-05-17T20:57:46.213Z,12.20
2018-05-17T21:00:13.731Z,12.20
2018-05-17T21:02:41.337Z,12.20
2018-05-17T21:05:08.848Z,12.20
2018-05-17T21:07:36.385Z,12.20
2018-05-17T21:10:03.892Z,12.20
2018-05-17T21:12:31.438Z,12.20
2018-05-17T21:14:59.341Z,12.20
2018-05-17T21:17:26.933Z,12.20
2018-05-17T21:19:54.447Z,12.30
2018-05-17T21:22:21.979Z,12.30
2018-05-17T21:24:49.499Z,12.30
2018-05-17T21:27:17.040Z,12.30
2018-05-17T21:29:44.563Z,12.30
2018-05-17T21:32:12.108Z,12.20
2018-05-17T21:34:39.621Z,12.20
2018-05-17T21:37:07.164Z,12.20
2018-05-17T21:39:34.800Z,12.20
2018-05-17T21:42:02.463Z,12.20
2018-05-17T21:44:30.015Z,12.20
2018-05-17T21:46:57.769Z,12.20
2018-05-17T21:49:25.425Z,12.20
2018-05-17T21:51:52.976Z,12.20
2018-05-17T21:54:20.484Z,12.20
2018-05-17T21:56:48.020Z,12.20
2018-05-17T21:59:15.541Z,12.20
2018-05-17T22:01:43.105Z,12.20
2018-05-17T22:04:10.766Z,12.20
2018-05-17T22:06:38.321Z,12.20
2018-05-17T22:09:05.839Z,12.10
2018-05-17T22:11:33.533Z,12.10
2018-05-17T22:14:01.058Z,12.20
2018-05-17T22:16:28.975Z,12.10
2018-05-17T22:18:56.705Z,12.20
2018-05-17T22:21:24.376Z,12.10
2018-05-17T22:23:51.915Z,12.10
2018-05-17T22:26:19.437Z,12.10
2018-05-17T22:28:46.980Z,12.00
2018-05-17T22:31:14.494Z,12.00
2018-05-17T22:33:42.055Z,11.90
2018-05-17T22:36:09.577Z,11.90
2018-05-17T22:38:37.528Z,11.80
2018-05-17T22:41:05.057Z,11.80
2018-05-17T22:43:32.595Z,11.70
2018-05-17T22:46:00.134Z,11.70
2018-05-17T22:48:27.793Z,11.70
2018-05-17T22:50:55.309Z,11.60
2018-05-17T22:53:22.854Z,11.60
2018-05-17T22:55:50.366Z,11.60
2018-05-17T22:58:29.702Z,11.60
2018-05-17T23:00:57.217Z,11.60
2018-05-17T23:03:25.154Z,11.60
2018-05-17T23:05:52.652Z,11.60
2018-05-17T23:08:20.205Z,11.60
2018-05-17T23:10:48.109Z,11.50
2018-05-17T23:13:15.641Z,11.60
2018-05-17T23:15:43.157Z,11.50
2018-05-17T23:18:10.704Z,11.50
2018-05-17T23:20:38.234Z,11.50
2018-05-17T23:23:05.795Z,11.50
2018-05-17T23:25:33.305Z,11.50
2018-05-17T23:28:01.193Z,11.50
2018-05-17T23:30:28.859Z,11.50
2018-05-17T23:32:56.520Z,11.50
2018-05-17T23:35:24.156Z,11.50
2018-05-17T23:37:51.674Z,11.50
2018-05-17T23:40:30.939Z,11.50
2018-05-17T23:42:58.473Z,11.50
2018-05-17T23:45:26.409Z,11.50
2018-05-17T23:47:53.927Z,11.50
2018-05-17T23:50:21.487Z,11.50
2018-05-17T23:52:48.990Z,11.50
2018-05-17T23:55:16.532Z,11.50
2018-05-17T23:57:44.170Z,11.50
